Terminal Aerodrome Forecast
Issued by NWS Cleveland, OH

Current Version | Previous Version | Text Only | Print | Product List | Glossary On
Versions: 1 2 3 4 5 6 7 8 9 10 11 12 13 14 15 16 17 18 19 20
000
FTUS41 KCLE 190534
TAFERI
TAF
KERI 190534Z 1906/2006 21015G25KT P6SM SKC
     FM200100 20016KT P6SM FEW250 WS020/23040KT=

USA.gov is the U.S. government's official web portal to all federal, state and local government web resources and services.